Home   Weather   France   Ajaccio   Past weeks
Flag for France

Past Weather in Ajaccio, Corse, France — Yesterday and Last 2 Weeks

Currently: 68 °F. Clear. (Weather station: Ajaccio Airport, France). See more current weather

Past Weather in Ajaccio — Graph

°F

Ajaccio Temperature Yesterday

Maximum temperature yesterday: 82 °F (at 9:30 am)
Minimum temperature yesterday: 61 °F (at 5:00 am)
Average temperature yesterday: 74 °F

High & Low Weather Summary for the Past Weeks

 TemperatureHumidityPressure
High82 °F (Jun 11, 5:30 pm)94% (Jun 5, 2:00 am)30.24 "Hg (Jun 5, 2:00 am)
Low55 °F (Jun 1, 4:30 am)37% (Jun 2, 3:00 pm)29.92 "Hg (Jun 1, 6:30 pm)
Average71 °F73%30.06 "Hg
* Reported May 30 11:00 pm — Jun 14 11:00 pm, Ajaccio. Weather by CustomWeather, © 2021

Note: Actual official high and low records may vary slightly from our data, if they occured in-between our weather recording intervals... More about our weather records

Ajaccio Weather History for the Previous 24 Hours

Scroll right to see more
 ConditionsComfort  
Time TempWeatherWind HumidityBarometerVisibility
11:00 pm
Mon, Jun 14
70 °FClear.5 mph78%30.01 "Hg10 mi
10:30 pm70 °FClear.5 mph78%29.98 "Hg10 mi
10:00 pm72 °FClear.2 mph83%29.98 "Hg10 mi
9:30 pm73 °FClear.3 mph83%29.98 "Hg10 mi
9:00 pm75 °FSunny.1 mph74%29.98 "Hg10 mi
8:30 pm77 °FSunny.2 mph69%29.98 "Hg10 mi
8:00 pm77 °FSunny.3 mph69%29.98 "Hg10 mi
7:30 pm79 °FSunny.6 mph65%29.98 "Hg10 mi
7:00 pm81 °FSunny.6 mph58%29.98 "Hg10 mi
6:30 pm81 °FSunny.7 mph58%29.98 "Hg10 mi
6:00 pm81 °FPassing clouds.8 mph62%30.01 "HgN/A
5:30 pm81 °FSunny.12 mph66%30.01 "Hg10 mi
5:00 pm81 °FSunny.12 mph66%30.01 "Hg10 mi
4:30 pm81 °FSunny.12 mph66%30.01 "Hg10 mi
4:00 pm81 °FSunny.13 mph70%30.01 "Hg10 mi
3:30 pm81 °FSunny.12 mph70%30.01 "Hg10 mi
3:00 pm82 °FSunny.12 mph66%30.01 "Hg10 mi
2:30 pm81 °FSunny.10 mph66%30.04 "Hg10 mi
2:00 pm81 °FSunny.13 mph70%30.04 "Hg10 mi
1:30 pm81 °FSunny.12 mph66%30.04 "Hg10 mi
1:00 pm81 °FSunny.12 mph66%30.04 "Hg10 mi
12:30 pm81 °FSunny.12 mph66%30.04 "Hg10 mi
12:00 pm81 °FSunny.10 mph66%30.04 "Hg10 mi
11:30 am81 °FSunny.10 mph62%30.04 "Hg10 mi
11:00 am81 °FSunny.9 mph58%30.04 "Hg10 mi
10:30 am81 °FSunny.6 mph54%30.04 "Hg10 mi
10:00 am79 °FSunny.6 mph58%30.04 "Hg10 mi
9:30 am82 °FSunny.3 mph45%30.04 "Hg10 mi
9:00 am79 °FSunny.2 mph51%30.07 "Hg10 mi
8:30 am75 °FPassing clouds.5 mph57%30.07 "HgN/A
8:00 am72 °FPassing clouds.3 mph65%30.07 "HgN/A
7:30 am66 °FSunny.6 mph78%30.07 "Hg10 mi
7:00 am64 °FSunny.6 mph78%30.07 "Hg10 mi
6:30 am63 °FSunny.8 mph83%30.07 "Hg10 mi
6:00 am61 °FSunny.8 mph88%30.07 "Hg10 mi
5:30 am61 °FClear.8 mph88%30.04 "Hg10 mi
5:00 am61 °FClear.7 mph88%30.04 "Hg10 mi
4:30 am63 °FClear.7 mph83%30.04 "Hg10 mi
4:00 am63 °FClear.8 mph88%30.07 "Hg10 mi
3:30 am64 °FClear.6 mph83%30.07 "Hg10 mi
3:00 am64 °FClear.6 mph83%30.07 "Hg10 mi
2:30 am64 °FClear.7 mph88%30.07 "Hg10 mi
1:30 am64 °FClear.5 mph88%30.07 "Hg10 mi
1:00 am66 °FClear.3 mph88%30.07 "Hg6 mi
12:30 am66 °FClear.2 mph88%30.07 "Hg10 mi
12:00 am68 °FClear.5 mph83%30.07 "Hg6 mi
Weather by CustomWeather, © 2021

See weather overview